createdAt,value
2022-10-30T00:00:40.991Z,89.24
2022-10-30T00:03:12.333Z,89.19
2022-10-30T00:05:48.042Z,88.51
2022-10-30T00:08:17.176Z,88.54
2022-10-30T00:10:45.128Z,87.86
2022-10-30T00:13:13.612Z,87.50
2022-10-30T00:15:40.708Z,87.29
2022-10-30T00:18:07.514Z,85.98
2022-10-30T00:20:37.078Z,86.52
2022-10-30T00:23:03.959Z,86.34
2022-10-30T00:25:30.830Z,86.06
2022-10-30T00:27:57.645Z,86.91
2022-10-30T00:30:24.439Z,86.90
2022-10-30T00:32:51.288Z,87.01
2022-10-30T00:35:18.102Z,87.24
2022-10-30T00:37:44.879Z,87.91
2022-10-30T00:40:16.410Z,87.80
2022-10-30T00:42:43.332Z,87.88
2022-10-30T00:45:15.309Z,88.35
2022-10-30T00:47:55.766Z,88.37
2022-10-30T00:50:30.837Z,88.48
2022-10-30T00:53:03.912Z,89.44
2022-10-30T00:55:37.984Z,89.63
2022-10-30T00:58:09.550Z,90.80
2022-10-30T01:00:39.170Z,90.89
2022-10-30T01:03:06.549Z,90.35
2022-10-30T01:05:34.704Z,90.46
2022-10-30T01:08:01.725Z,90.53
2022-10-30T01:10:28.913Z,90.47
2022-10-30T01:12:58.727Z,91.52
2022-10-30T01:15:33.360Z,92.03
2022-10-30T01:18:38.243Z,92.02
2022-10-30T01:21:38.831Z,93.00
2022-10-30T01:24:20.518Z,93.00
2022-10-30T01:26:51.393Z,93.38
2022-10-30T01:29:36.620Z,93.63
2022-10-30T01:32:24.088Z,96.61
2022-10-30T01:35:22.798Z,95.38
2022-10-30T01:38:02.013Z,94.46
2022-10-30T01:40:29.143Z,93.56
2022-10-30T01:42:58.122Z,92.63
2022-10-30T01:45:28.813Z,92.54
2022-10-30T01:48:04.239Z,91.93
2022-10-30T01:50:39.278Z,91.35
2022-10-30T01:53:38.452Z,92.16
2022-10-30T01:56:16.093Z,93.12
2022-10-30T01:59:11.505Z,93.38
2022-10-30T02:01:40.141Z,93.99
2022-10-30T02:04:09.233Z,94.49
2022-10-30T02:06:37.893Z,94.92
2022-10-30T02:09:06.063Z,94.59
2022-10-30T02:11:36.285Z,95.28
2022-10-30T02:14:06.256Z,95.58
2022-10-30T02:16:38.102Z,94.88
2022-10-30T02:19:06.693Z,95.12
2022-10-30T02:21:33.764Z,95.65
2022-10-30T02:24:00.643Z,95.45
2022-10-30T02:26:27.514Z,95.86
2022-10-30T02:28:54.389Z,98.08
2022-10-30T02:31:21.157Z,97.74
2022-10-30T02:33:48.440Z,100.00
2022-10-30T02:36:17.965Z,100.00
2022-10-30T02:38:45.049Z,100.00
2022-10-30T02:41:12.608Z,98.77
2022-10-30T02:43:39.435Z,97.94
2022-10-30T02:46:06.296Z,97.96
2022-10-30T02:48:34.129Z,98.31
2022-10-30T02:51:02.109Z,98.37
2022-10-30T02:53:30.235Z,98.25
2022-10-30T02:56:03.551Z,98.94
2022-10-30T02:58:30.704Z,97.25
2022-10-30T03:00:57.661Z,96.79
2022-10-30T03:03:24.580Z,95.99
2022-10-30T03:05:51.561Z,96.26
2022-10-30T03:08:18.357Z,96.39
2022-10-30T03:10:45.236Z,96.17
2022-10-30T03:13:12.008Z,96.54
2022-10-30T03:15:38.858Z,97.18
2022-10-30T03:18:06.002Z,96.82
2022-10-30T03:20:36.620Z,96.22
2022-10-30T03:23:03.391Z,95.11
2022-10-30T03:25:30.226Z,95.77
2022-10-30T03:27:59.670Z,96.44
2022-10-30T03:30:27.507Z,96.41
2022-10-30T03:32:54.304Z,95.95
2022-10-30T03:35:21.198Z,96.35
2022-10-30T03:37:48.093Z,97.60
2022-10-30T03:40:14.925Z,97.34
2022-10-30T03:42:42.165Z,97.88
2022-10-30T03:45:09.558Z,97.58
2022-10-30T03:47:40.672Z,98.25
2022-10-30T03:50:09.256Z,100.00
2022-10-30T03:52:36.086Z,99.58
2022-10-30T03:55:02.899Z,98.56
2022-10-30T03:57:29.840Z,97.20
2022-10-30T04:00:11.871Z,96.22
2022-10-30T04:02:49.077Z,97.34
2022-10-30T04:05:21.663Z,97.59
2022-10-30T04:07:55.214Z,98.35
2022-10-30T04:10:23.918Z,97.53
2022-10-30T04:12:53.165Z,97.57
2022-10-30T04:15:20.025Z,97.91
2022-10-30T04:17:51.432Z,98.31
2022-10-30T04:20:20.027Z,98.16
2022-10-30T04:22:48.241Z,97.63
2022-10-30T04:25:19.713Z,98.00
2022-10-30T04:27:49.764Z,97.58
2022-10-30T04:30:20.235Z,97.87
2022-10-30T04:32:53.034Z,98.40
2022-10-30T04:35:21.745Z,99.28
2022-10-30T04:37:56.559Z,99.38
2022-10-30T04:40:25.720Z,100.00
2022-10-30T04:42:57.722Z,100.00
2022-10-30T04:45:25.500Z,100.00
2022-10-30T04:47:53.580Z,100.00
2022-10-30T04:50:20.493Z,100.00
2022-10-30T04:52:47.370Z,99.23
2022-10-30T04:55:14.206Z,98.79
2022-10-30T04:57:43.407Z,98.54
2022-10-30T05:00:11.771Z,99.21
2022-10-30T05:02:39.318Z,100.00
2022-10-30T05:05:06.506Z,99.49
2022-10-30T05:07:33.310Z,99.43
2022-10-30T05:10:00.120Z,100.00
2022-10-30T05:12:26.973Z,100.00
2022-10-30T05:14:55.860Z,100.00
2022-10-30T05:17:23.563Z,100.00
2022-10-30T05:19:51.208Z,100.00
2022-10-30T05:22:18.190Z,100.00
2022-10-30T05:24:45.020Z,97.84
2022-10-30T05:27:12.789Z,98.66
2022-10-30T05:29:40.251Z,99.15
2022-10-30T05:32:07.186Z,99.45
2022-10-30T05:34:39.740Z,99.60
2022-10-30T05:37:07.177Z,100.00
2022-10-30T05:39:35.055Z,99.60
2022-10-30T05:42:03.121Z,100.00
2022-10-30T05:44:59.920Z,99.06
2022-10-30T05:47:27.698Z,99.91
2022-10-30T05:49:56.683Z,98.83
2022-10-30T05:52:25.969Z,100.00
2022-10-30T05:54:52.813Z,99.36
2022-10-30T05:58:04.657Z,98.01
2022-10-30T06:00:35.362Z,98.84
2022-10-30T06:03:04.976Z,97.01
2022-10-30T06:05:35.134Z,97.84
2022-10-30T06:08:02.990Z,97.55
2022-10-30T06:10:30.419Z,96.77
2022-10-30T06:13:20.580Z,97.11
2022-10-30T06:16:00.326Z,97.28
2022-10-30T06:18:40.519Z,95.74
2022-10-30T06:21:10.926Z,96.02
2022-10-30T06:23:48.735Z,94.59
2022-10-30T06:26:34.225Z,94.41
2022-10-30T06:29:06.996Z,92.64
2022-10-30T06:31:33.853Z,91.49
2022-10-30T06:34:01.793Z,91.68
2022-10-30T06:36:29.827Z,90.33
2022-10-30T06:38:58.395Z,90.02
2022-10-30T06:41:30.627Z,90.09
2022-10-30T06:44:29.590Z,88.61
2022-10-30T06:46:56.437Z,88.64
2022-10-30T06:49:23.270Z,88.59
2022-10-30T06:51:57.279Z,88.30
2022-10-30T06:54:24.146Z,87.07
2022-10-30T06:57:00.729Z,86.74
2022-10-30T06:59:41.279Z,86.12
2022-10-30T07:02:28.561Z,85.74
2022-10-30T07:04:59.190Z,86.25
2022-10-30T07:07:26.750Z,85.83
2022-10-30T07:09:53.584Z,86.74
2022-10-30T07:12:27.167Z,85.98
2022-10-30T07:15:09.986Z,85.33
2022-10-30T07:18:04.127Z,86.12
2022-10-30T07:20:35.138Z,85.10
2022-10-30T07:23:02.547Z,84.91
2022-10-30T07:25:30.114Z,85.24
2022-10-30T07:28:06.314Z,84.53
2022-10-30T07:30:36.740Z,85.72
2022-10-30T07:33:16.299Z,82.81
2022-10-30T07:36:03.768Z,80.04
2022-10-30T07:38:52.185Z,82.59
2022-10-30T07:41:33.468Z,77.75
2022-10-30T07:44:20.548Z,77.08
2022-10-30T07:46:56.923Z,76.40
2022-10-30T07:49:50.063Z,75.59
2022-10-30T07:52:18.154Z,73.95
2022-10-30T07:54:47.822Z,71.35
2022-10-30T07:57:52.910Z,69.46
2022-10-30T08:00:55.038Z,67.66
2022-10-30T08:03:29.602Z,67.97
2022-10-30T08:06:11.469Z,69.04
2022-10-30T08:08:40.493Z,67.62
2022-10-30T08:11:28.802Z,67.26
2022-10-30T08:13:57.803Z,66.52
2022-10-30T08:16:24.708Z,66.54
2022-10-30T08:18:51.705Z,66.84
2022-10-30T08:21:21.919Z,66.77
2022-10-30T08:23:58.908Z,66.89
2022-10-30T08:26:28.389Z,66.56
2022-10-30T08:28:55.347Z,66.17
2022-10-30T08:31:24.332Z,65.94
2022-10-30T08:34:14.307Z,66.65
2022-10-30T08:36:52.180Z,65.00
2022-10-30T08:39:20.108Z,63.11
2022-10-30T08:41:59.432Z,62.63
2022-10-30T08:44:31.108Z,61.71
2022-10-30T08:47:16.619Z,61.50
2022-10-30T08:49:47.818Z,62.18
2022-10-30T08:52:17.872Z,59.96
2022-10-30T08:54:48.482Z,60.23
2022-10-30T08:57:15.791Z,57.39
2022-10-30T08:59:42.620Z,56.86
2022-10-30T09:02:21.051Z,57.08
2022-10-30T09:05:09.345Z,56.74
2022-10-30T09:08:02.243Z,55.00
2022-10-30T09:10:48.238Z,54.72
2022-10-30T09:13:15.781Z,54.10
2022-10-30T09:15:43.336Z,52.45
2022-10-30T09:18:10.776Z,52.12
2022-10-30T09:20:38.489Z,51.45
2022-10-30T09:23:05.389Z,52.20
2022-10-30T09:25:32.350Z,52.44
2022-10-30T09:28:17.698Z,51.96
2022-10-30T09:31:04.099Z,52.30
2022-10-30T09:33:35.017Z,52.37
2022-10-30T09:36:22.495Z,50.98
2022-10-30T09:38:51.726Z,50.03
2022-10-30T09:41:50.208Z,50.82
2022-10-30T09:44:25.746Z,50.16
2022-10-30T09:47:03.761Z,48.56
2022-10-30T09:49:49.642Z,49.27
2022-10-30T09:52:28.799Z,47.64
2022-10-30T09:55:00.443Z,46.44
2022-10-30T09:57:52.451Z,45.72
2022-10-30T10:00:27.925Z,47.03
2022-10-30T10:03:16.173Z,44.21
2022-10-30T10:06:04.918Z,43.80
2022-10-30T10:09:06.401Z,44.77
2022-10-30T10:12:10.335Z,43.09
2022-10-30T10:14:43.105Z,43.07
2022-10-30T10:17:14.480Z,41.75
2022-10-30T10:19:55.233Z,41.82
2022-10-30T10:22:26.962Z,43.83
2022-10-30T10:24:55.078Z,41.17
2022-10-30T10:27:30.652Z,40.74
2022-10-30T10:30:03.507Z,39.11
2022-10-30T10:33:02.544Z,40.51
2022-10-30T10:35:46.725Z,38.92
2022-10-30T10:38:28.769Z,36.86
2022-10-30T10:41:10.768Z,38.42
2022-10-30T10:44:00.771Z,37.63
2022-10-30T10:46:30.575Z,37.10
2022-10-30T10:49:18.227Z,37.35
2022-10-30T10:51:50.846Z,36.70
2022-10-30T10:54:39.267Z,35.69
2022-10-30T10:57:08.025Z,37.20
2022-10-30T10:59:44.034Z,36.53
2022-10-30T11:02:30.181Z,36.58
2022-10-30T11:05:05.217Z,34.73
2022-10-30T11:07:37.332Z,35.99
2022-10-30T11:10:13.530Z,35.29
2022-10-30T11:12:40.980Z,35.40
2022-10-30T11:15:44.782Z,34.30
2022-10-30T11:18:11.674Z,34.14
2022-10-30T11:20:44.345Z,33.66
2022-10-30T11:23:34.410Z,33.60
2022-10-30T11:26:05.799Z,33.70
2022-10-30T11:28:39.172Z,34.08
2022-10-30T11:31:43.398Z,32.72
2022-10-30T11:34:17.814Z,33.15
2022-10-30T11:36:44.945Z,33.15
2022-10-30T11:39:26.902Z,32.73
2022-10-30T11:42:17.913Z,33.21
2022-10-30T11:44:51.760Z,31.89
2022-10-30T11:47:23.128Z,31.75
2022-10-30T11:49:56.811Z,31.69
2022-10-30T11:52:26.979Z,32.02
2022-10-30T11:54:58.674Z,31.94
2022-10-30T11:57:47.871Z,31.58
2022-10-30T12:00:25.510Z,31.63
2022-10-30T12:02:54.886Z,31.15
2022-10-30T12:05:26.508Z,30.92
2022-10-30T12:08:17.693Z,30.01
2022-10-30T12:10:56.643Z,30.99
2022-10-30T12:13:25.674Z,30.68
2022-10-30T12:16:16.772Z,30.39
2022-10-30T12:18:56.837Z,31.43
2022-10-30T12:21:25.421Z,30.15
2022-10-30T12:23:59.774Z,29.38
2022-10-30T12:26:27.868Z,29.13
2022-10-30T12:28:59.422Z,29.46
2022-10-30T12:31:53.397Z,29.43
2022-10-30T12:34:39.149Z,29.03
2022-10-30T12:37:20.691Z,29.34
2022-10-30T12:40:22.308Z,29.42
2022-10-30T12:42:57.677Z,29.70
2022-10-30T12:45:53.404Z,29.90
2022-10-30T12:48:37.690Z,28.71
2022-10-30T12:51:24.143Z,28.44
2022-10-30T12:54:03.877Z,28.05
2022-10-30T12:56:38.614Z,27.86
2022-10-30T12:59:50.525Z,27.89
2022-10-30T13:02:38.836Z,26.98
2022-10-30T13:05:25.405Z,27.24
2022-10-30T13:08:02.809Z,26.74
2022-10-30T13:10:39.094Z,26.30
2022-10-30T13:13:16.936Z,25.87
2022-10-30T13:15:54.362Z,26.09
2022-10-30T13:18:23.465Z,26.18
2022-10-30T13:21:06.951Z,25.95
2022-10-30T13:23:51.738Z,26.32
2022-10-30T13:26:30.089Z,27.02
2022-10-30T13:29:03.013Z,26.59
2022-10-30T13:31:46.156Z,26.68
2022-10-30T13:34:40.459Z,26.76
2022-10-30T13:37:22.385Z,26.62
2022-10-30T13:40:05.757Z,27.15
2022-10-30T13:43:07.321Z,27.80
2022-10-30T13:45:51.090Z,28.40
2022-10-30T13:48:36.751Z,28.57
2022-10-30T13:51:18.814Z,28.68
2022-10-30T13:53:49.710Z,29.11
2022-10-30T13:56:19.097Z,29.81
2022-10-30T13:59:00.249Z,30.13
2022-10-30T14:01:48.416Z,29.73
2022-10-30T14:04:25.166Z,29.90
2022-10-30T14:07:16.006Z,30.18
2022-10-30T14:09:58.427Z,30.29
2022-10-30T14:13:08.957Z,30.51
2022-10-30T14:15:46.815Z,31.36
2022-10-30T14:18:13.600Z,31.63
2022-10-30T14:20:48.569Z,32.33
2022-10-30T14:23:30.441Z,33.20
2022-10-30T14:26:03.550Z,33.57
2022-10-30T14:28:36.013Z,34.32
2022-10-30T14:31:10.271Z,34.71
2022-10-30T14:33:40.060Z,34.98
2022-10-30T14:36:12.978Z,35.62
2022-10-30T14:38:41.017Z,35.81
2022-10-30T14:41:26.360Z,36.25
2022-10-30T14:44:04.300Z,36.65
2022-10-30T14:46:43.335Z,36.93
2022-10-30T14:49:37.865Z,37.21
2022-10-30T14:52:24.964Z,37.50
2022-10-30T14:55:17.223Z,37.65
2022-10-30T14:57:51.976Z,38.20
2022-10-30T15:00:24.886Z,38.39
2022-10-30T15:02:57.757Z,38.73
2022-10-30T15:05:46.728Z,38.77
2022-10-30T15:08:47.598Z,39.13
2022-10-30T15:11:39.154Z,39.30
2022-10-30T15:14:21.708Z,39.69
2022-10-30T15:16:59.886Z,39.84
2022-10-30T15:19:29.544Z,40.03
2022-10-30T15:21:57.244Z,40.31
2022-10-30T15:24:32.095Z,40.50
2022-10-30T15:27:01.741Z,40.80
2022-10-30T15:29:34.123Z,40.96
2022-10-30T15:32:16.365Z,41.05
2022-10-30T15:35:04.375Z,40.93
2022-10-30T15:37:32.170Z,41.14
2022-10-30T15:40:20.006Z,41.42
2022-10-30T15:42:49.284Z,41.60
2022-10-30T15:45:18.894Z,41.67
2022-10-30T15:47:49.275Z,41.92
2022-10-30T15:50:17.396Z,42.19
2022-10-30T15:52:44.223Z,42.42
2022-10-30T15:55:16.594Z,42.83
2022-10-30T15:58:03.036Z,42.85
2022-10-30T16:00:35.795Z,42.94
2022-10-30T16:03:18.157Z,43.03
2022-10-30T16:05:45.108Z,43.12
2022-10-30T16:08:24.081Z,43.47
2022-10-30T16:10:55.289Z,43.62
2022-10-30T16:13:28.933Z,43.70
2022-10-30T16:15:56.093Z,43.56
2022-10-30T16:18:31.082Z,43.89
2022-10-30T16:21:06.324Z,44.14
2022-10-30T16:23:42.722Z,44.58
2022-10-30T16:26:25.030Z,44.62
2022-10-30T16:28:52.263Z,44.78
2022-10-30T16:31:20.461Z,45.07
2022-10-30T16:33:49.446Z,44.89
2022-10-30T16:36:17.449Z,45.01
2022-10-30T16:38:49.384Z,45.29
2022-10-30T16:41:21.383Z,45.32
2022-10-30T16:44:12.872Z,45.26
2022-10-30T16:46:54.890Z,45.33
2022-10-30T16:49:26.197Z,45.47
2022-10-30T16:52:21.929Z,45.39
2022-10-30T16:54:58.478Z,45.59
2022-10-30T16:57:45.666Z,45.89
2022-10-30T17:00:41.825Z,45.82
2022-10-30T17:03:11.780Z,46.16
2022-10-30T17:05:40.525Z,46.31
2022-10-30T17:08:29.739Z,46.46
2022-10-30T17:11:00.054Z,46.57
2022-10-30T17:13:39.049Z,46.79
2022-10-30T17:16:24.877Z,46.88
2022-10-30T17:18:54.171Z,46.93
2022-10-30T17:21:39.485Z,47.32
2022-10-30T17:24:19.285Z,47.31
2022-10-30T17:26:55.200Z,47.43
2022-10-30T17:29:51.407Z,47.73
2022-10-30T17:32:23.593Z,47.94
2022-10-30T17:35:03.018Z,47.99
2022-10-30T17:37:29.894Z,48.08
2022-10-30T17:39:56.888Z,48.16
2022-10-30T17:42:23.841Z,48.19
2022-10-30T17:44:50.656Z,48.16
2022-10-30T17:47:19.951Z,48.35
2022-10-30T17:49:47.336Z,48.55
2022-10-30T17:52:16.789Z,48.67
2022-10-30T17:54:44.298Z,48.50
2022-10-30T17:57:12.349Z,48.61
2022-10-30T17:59:40.252Z,48.65
2022-10-30T18:02:15.517Z,48.83
2022-10-30T18:04:43.543Z,48.60
2022-10-30T18:07:11.154Z,48.63
2022-10-30T18:09:38.783Z,48.71
2022-10-30T18:12:11.227Z,48.40
2022-10-30T18:14:38.166Z,48.55
2022-10-30T18:17:05.000Z,48.59
2022-10-30T18:19:31.952Z,49.08
2022-10-30T18:21:58.778Z,48.83
2022-10-30T18:24:25.677Z,49.31
2022-10-30T18:26:54.056Z,49.43
2022-10-30T18:29:21.218Z,49.19
2022-10-30T18:31:48.331Z,49.61
2022-10-30T18:34:18.466Z,49.38
2022-10-30T18:36:45.935Z,49.38
2022-10-30T18:39:13.157Z,49.40
2022-10-30T18:41:45.339Z,49.47
2022-10-30T18:44:16.199Z,49.14
2022-10-30T18:46:43.595Z,49.19
2022-10-30T18:49:11.229Z,48.93
2022-10-30T18:51:39.275Z,49.03
2022-10-30T18:54:14.053Z,49.10
2022-10-30T18:56:41.116Z,49.07
2022-10-30T18:59:07.980Z,48.93
2022-10-30T19:01:35.458Z,48.91
2022-10-30T19:04:03.956Z,49.16
2022-10-30T19:06:32.970Z,48.74
2022-10-30T19:08:59.863Z,48.99
2022-10-30T19:11:28.253Z,48.94
2022-10-30T19:13:57.228Z,49.28
2022-10-30T19:16:25.604Z,49.25
2022-10-30T19:18:53.150Z,49.20
2022-10-30T19:21:23.205Z,49.18
2022-10-30T19:23:50.130Z,49.00
2022-10-30T19:26:17.778Z,48.51
2022-10-30T19:28:45.970Z,48.28
2022-10-30T19:31:17.541Z,48.33
2022-10-30T19:33:45.159Z,48.06
2022-10-30T19:36:29.372Z,48.12
2022-10-30T19:38:56.743Z,48.46
2022-10-30T19:41:25.112Z,47.78
2022-10-30T19:43:53.531Z,47.76
2022-10-30T19:46:20.850Z,47.96
2022-10-30T19:49:02.856Z,47.77
2022-10-30T19:51:29.678Z,48.01
2022-10-30T19:53:56.580Z,48.13
2022-10-30T19:56:23.410Z,48.08
2022-10-30T19:58:51.493Z,48.43
2022-10-30T20:01:18.658Z,48.20
2022-10-30T20:03:45.678Z,48.24
2022-10-30T20:06:13.573Z,48.56
2022-10-30T20:08:41.297Z,48.44
2022-10-30T20:11:08.305Z,48.72
2022-10-30T20:13:37.407Z,48.63
2022-10-30T20:16:05.649Z,48.48
2022-10-30T20:18:34.818Z,48.32
2022-10-30T20:21:09.744Z,49.01
2022-10-30T20:23:37.251Z,48.88
2022-10-30T20:26:24.341Z,48.82
2022-10-30T20:28:51.901Z,48.74
2022-10-30T20:31:19.156Z,49.19
2022-10-30T20:33:45.915Z,49.22
2022-10-30T20:36:15.576Z,49.27
2022-10-30T20:38:42.610Z,48.85
2022-10-30T20:41:20.150Z,48.92
2022-10-30T20:43:46.973Z,48.89
2022-10-30T20:46:13.797Z,48.84
2022-10-30T20:48:40.548Z,49.03
2022-10-30T20:51:08.000Z,49.35
2022-10-30T20:53:34.816Z,49.03
2022-10-30T20:56:01.584Z,49.23
2022-10-30T20:58:28.714Z,49.11
2022-10-30T21:00:58.440Z,49.20
2022-10-30T21:03:26.479Z,49.20
2022-10-30T21:05:58.619Z,48.90
2022-10-30T21:08:26.869Z,48.90
2022-10-30T21:10:57.733Z,48.95
2022-10-30T21:13:24.615Z,49.26
2022-10-30T21:15:51.596Z,49.09
2022-10-30T21:18:18.432Z,49.09
2022-10-30T21:20:45.338Z,49.05
2022-10-30T21:23:13.266Z,49.17
2022-10-30T21:25:40.093Z,49.02
2022-10-30T21:28:06.912Z,49.17
2022-10-30T21:30:33.802Z,49.34
2022-10-30T21:33:00.812Z,49.27
2022-10-30T21:35:29.388Z,49.42
2022-10-30T21:37:56.196Z,49.08
2022-10-30T21:40:24.024Z,49.39
2022-10-30T21:42:51.918Z,49.26
2022-10-30T21:45:18.805Z,49.35
2022-10-30T21:47:45.612Z,49.29
2022-10-30T21:50:13.024Z,49.32
2022-10-30T21:52:40.849Z,49.43
2022-10-30T21:55:09.137Z,49.51
2022-10-30T21:57:36.469Z,49.21
2022-10-30T22:00:05.694Z,49.12
2022-10-30T22:02:35.677Z,49.25
2022-10-30T22:05:02.495Z,49.23
2022-10-30T22:07:29.703Z,50.03
2022-10-30T22:09:56.573Z,49.69
2022-10-30T22:12:23.383Z,49.76
2022-10-30T22:14:51.449Z,49.61
2022-10-30T22:17:18.506Z,49.51
2022-10-30T22:19:45.262Z,49.49
2022-10-30T22:22:12.093Z,49.55
2022-10-30T22:24:38.877Z,49.99
2022-10-30T22:27:05.772Z,50.15
2022-10-30T22:29:32.623Z,50.96
2022-10-30T22:31:59.444Z,51.10
2022-10-30T22:34:26.310Z,51.47
2022-10-30T22:36:53.193Z,51.89
2022-10-30T22:39:20.039Z,51.88
2022-10-30T22:41:46.885Z,52.23
2022-10-30T22:44:17.552Z,53.73
2022-10-30T22:46:44.809Z,53.62
2022-10-30T22:49:12.535Z,53.80
2022-10-30T22:51:39.896Z,53.08
2022-10-30T22:54:12.296Z,53.23
2022-10-30T22:56:40.596Z,53.23
2022-10-30T22:59:11.654Z,52.41
2022-10-30T23:01:39.503Z,52.88
2022-10-30T23:04:07.429Z,52.70
2022-10-30T23:06:36.267Z,52.39
2022-10-30T23:09:06.153Z,52.19
2022-10-30T23:11:33.423Z,51.58
2022-10-30T23:14:03.397Z,51.90
2022-10-30T23:16:31.334Z,51.96
2022-10-30T23:19:00.411Z,51.87
2022-10-30T23:21:29.785Z,51.78
2022-10-30T23:23:56.854Z,51.93
2022-10-30T23:26:27.514Z,52.67
2022-10-30T23:28:55.930Z,52.17
2022-10-30T23:31:32.471Z,52.20
2022-10-30T23:34:02.303Z,52.46
2022-10-30T23:36:29.406Z,52.83
2022-10-30T23:39:04.947Z,52.42
2022-10-30T23:41:34.554Z,52.26
2022-10-30T23:44:11.308Z,52.19
2022-10-30T23:46:38.194Z,52.44
2022-10-30T23:49:05.279Z,52.60
2022-10-30T23:51:32.607Z,52.67
2022-10-30T23:53:59.630Z,53.29
2022-10-30T23:56:28.275Z,53.59
2022-10-30T23:58:55.624Z,53.76
